sensor_id;sensor_type;location;lat;lon;timestamp;P1;durP1;ratioP1;P2;durP2;ratioP2
67528;SDS011;54366;51.980;5.856;2023-04-03T00:02:00;1.20;;;1.00;;
67528;SDS011;54366;51.980;5.856;2023-04-03T00:04:33;2.05;;;1.35;;
67528;SDS011;54366;51.980;5.856;2023-04-03T00:07:06;3.85;;;1.30;;
67528;SDS011;54366;51.980;5.856;2023-04-03T00:09:39;2.50;;;1.15;;
67528;SDS011;54366;51.980;5.856;2023-04-03T00:12:05;2.40;;;1.02;;
67528;SDS011;54366;51.980;5.856;2023-04-03T00:14:38;3.33;;;1.05;;
67528;SDS011;54366;51.980;5.856;2023-04-03T00:17:11;1.88;;;1.13;;
67528;SDS011;54366;51.980;5.856;2023-04-03T00:19:44;2.08;;;1.08;;
67528;SDS011;54366;51.980;5.856;2023-04-03T00:22:17;2.08;;;1.08;;
67528;SDS011;54366;51.980;5.856;2023-04-03T00:24:43;1.95;;;1.23;;
67528;SDS011;54366;51.980;5.856;2023-04-03T00:27:16;2.72;;;1.30;;
67528;SDS011;54366;51.980;5.856;2023-04-03T00:29:49;1.60;;;1.08;;
67528;SDS011;54366;51.980;5.856;2023-04-03T00:32:15;2.33;;;1.15;;
67528;SDS011;54366;51.980;5.856;2023-04-03T00:34:48;3.15;;;1.20;;
67528;SDS011;54366;51.980;5.856;2023-04-03T00:37:21;3.25;;;1.00;;
67528;SDS011;54366;51.980;5.856;2023-04-03T00:39:54;1.98;;;1.20;;
67528;SDS011;54366;51.980;5.856;2023-04-03T00:42:27;2.10;;;1.20;;
67528;SDS011;54366;51.980;5.856;2023-04-03T00:45:37;1.92;;;1.13;;
67528;SDS011;54366;51.980;5.856;2023-04-03T00:47:55;1.65;;;0.90;;
67528;SDS011;54366;51.980;5.856;2023-04-03T00:50:28;2.35;;;1.13;;
67528;SDS011;54366;51.980;5.856;2023-04-03T00:53:03;2.80;;;1.30;;
67528;SDS011;54366;51.980;5.856;2023-04-03T00:55:36;1.23;;;0.88;;
67528;SDS011;54366;51.980;5.856;2023-04-03T00:58:04;2.55;;;1.13;;
67528;SDS011;54366;51.980;5.856;2023-04-03T01:00:40;2.50;;;1.08;;
67528;SDS011;54366;51.980;5.856;2023-04-03T01:03:18;1.92;;;0.90;;
67528;SDS011;54366;51.980;5.856;2023-04-03T01:06:01;1.50;;;0.70;;
67528;SDS011;54366;51.980;5.856;2023-04-03T01:08:34;1.20;;;0.90;;
67528;SDS011;54366;51.980;5.856;2023-04-03T01:11:07;2.70;;;0.85;;
67528;SDS011;54366;51.980;5.856;2023-04-03T01:13:41;2.92;;;1.00;;
67528;SDS011;54366;51.980;5.856;2023-04-03T01:16:13;1.48;;;0.90;;
67528;SDS011;54366;51.980;5.856;2023-04-03T01:18:40;2.00;;;1.00;;
67528;SDS011;54366;51.980;5.856;2023-04-03T01:27:01;2.15;;;1.05;;
67528;SDS011;54366;51.980;5.856;2023-04-03T01:29:36;3.65;;;1.20;;
67528;SDS011;54366;51.980;5.856;2023-04-03T01:32:09;2.50;;;1.08;;
67528;SDS011;54366;51.980;5.856;2023-04-03T01:34:42;3.42;;;1.10;;
67528;SDS011;54366;51.980;5.856;2023-04-03T01:37:15;1.92;;;1.08;;
67528;SDS011;54366;51.980;5.856;2023-04-03T01:39:48;3.88;;;0.90;;
67528;SDS011;54366;51.980;5.856;2023-04-03T01:42:21;3.15;;;1.10;;
67528;SDS011;54366;51.980;5.856;2023-04-03T01:44:54;4.30;;;1.10;;
67528;SDS011;54366;51.980;5.856;2023-04-03T01:47:27;3.25;;;1.00;;
67528;SDS011;54366;51.980;5.856;2023-04-03T01:50:00;2.38;;;0.88;;
67528;SDS011;54366;51.980;5.856;2023-04-03T01:52:30;2.38;;;1.00;;
67528;SDS011;54366;51.980;5.856;2023-04-03T01:55:04;1.67;;;0.80;;
67528;SDS011;54366;51.980;5.856;2023-04-03T01:57:38;2.42;;;0.75;;
67528;SDS011;54366;51.980;5.856;2023-04-03T02:00:10;3.05;;;1.10;;
67528;SDS011;54366;51.980;5.856;2023-04-03T02:02:50;2.28;;;1.00;;
67528;SDS011;54366;51.980;5.856;2023-04-03T02:05:25;3.10;;;1.35;;
67528;SDS011;54366;51.980;5.856;2023-04-03T02:07:57;2.70;;;0.98;;
67528;SDS011;54366;51.980;5.856;2023-04-03T02:10:23;2.70;;;1.00;;
67528;SDS011;54366;51.980;5.856;2023-04-03T02:12:56;2.25;;;0.90;;
67528;SDS011;54366;51.980;5.856;2023-04-03T02:15:30;3.97;;;1.00;;
67528;SDS011;54366;51.980;5.856;2023-04-03T02:18:03;2.63;;;0.98;;
67528;SDS011;54366;51.980;5.856;2023-04-03T02:20:30;2.88;;;0.90;;
67528;SDS011;54366;51.980;5.856;2023-04-03T02:23:02;2.35;;;0.98;;
67528;SDS011;54366;51.980;5.856;2023-04-03T02:25:32;4.10;;;1.27;;
67528;SDS011;54366;51.980;5.856;2023-04-03T02:28:05;3.72;;;0.93;;
67528;SDS011;54366;51.980;5.856;2023-04-03T02:30:39;3.25;;;1.00;;
67528;SDS011;54366;51.980;5.856;2023-04-03T02:33:11;3.13;;;1.20;;
67528;SDS011;54366;51.980;5.856;2023-04-03T02:35:44;2.95;;;1.55;;
67528;SDS011;54366;51.980;5.856;2023-04-03T02:38:24;3.55;;;1.27;;
67528;SDS011;54366;51.980;5.856;2023-04-03T02:40:52;2.90;;;1.15;;
67528;SDS011;54366;51.980;5.856;2023-04-03T02:43:25;1.50;;;0.98;;
67528;SDS011;54366;51.980;5.856;2023-04-03T02:45:58;3.10;;;1.13;;
67528;SDS011;54366;51.980;5.856;2023-04-03T02:48:31;3.22;;;1.17;;
67528;SDS011;54366;51.980;5.856;2023-04-03T02:51:04;2.20;;;0.73;;
67528;SDS011;54366;51.980;5.856;2023-04-03T02:53:37;2.83;;;1.02;;
67528;SDS011;54366;51.980;5.856;2023-04-03T02:56:10;4.22;;;1.25;;
67528;SDS011;54366;51.980;5.856;2023-04-03T02:58:42;3.63;;;1.23;;
67528;SDS011;54366;51.980;5.856;2023-04-03T03:04:02;3.05;;;1.00;;
67528;SDS011;54366;51.980;5.856;2023-04-03T03:06:42;3.63;;;1.10;;
67528;SDS011;54366;51.980;5.856;2023-04-03T03:09:15;3.22;;;1.10;;
67528;SDS011;54366;51.980;5.856;2023-04-03T03:11:48;1.40;;;0.70;;
67528;SDS011;54366;51.980;5.856;2023-04-03T03:14:14;4.13;;;1.27;;
67528;SDS011;54366;51.980;5.856;2023-04-03T03:16:47;2.15;;;1.00;;
67528;SDS011;54366;51.980;5.856;2023-04-03T03:19:20;2.72;;;1.05;;
67528;SDS011;54366;51.980;5.856;2023-04-03T03:21:53;4.28;;;1.25;;
67528;SDS011;54366;51.980;5.856;2023-04-03T03:24:26;2.47;;;1.00;;
67528;SDS011;54366;51.980;5.856;2023-04-03T03:26:59;2.25;;;1.10;;
67528;SDS011;54366;51.980;5.856;2023-04-03T03:29:32;2.50;;;0.95;;
67528;SDS011;54366;51.980;5.856;2023-04-03T03:31:59;4.03;;;1.15;;
67528;SDS011;54366;51.980;5.856;2023-04-03T03:34:31;4.53;;;1.38;;
67528;SDS011;54366;51.980;5.856;2023-04-03T03:37:05;2.13;;;0.95;;
67528;SDS011;54366;51.980;5.856;2023-04-03T03:39:37;3.85;;;1.05;;
67528;SDS011;54366;51.980;5.856;2023-04-03T03:42:11;2.05;;;0.95;;
67528;SDS011;54366;51.980;5.856;2023-04-03T03:44:37;3.20;;;1.10;;
67528;SDS011;54366;51.980;5.856;2023-04-03T03:47:10;1.88;;;0.95;;
67528;SDS011;54366;51.980;5.856;2023-04-03T03:49:37;2.60;;;0.93;;
67528;SDS011;54366;51.980;5.856;2023-04-03T03:52:10;3.35;;;1.20;;
67528;SDS011;54366;51.980;5.856;2023-04-03T03:54:43;3.40;;;1.20;;
67528;SDS011;54366;51.980;5.856;2023-04-03T03:57:16;2.55;;;1.00;;
67528;SDS011;54366;51.980;5.856;2023-04-03T03:59:49;3.58;;;1.10;;
67528;SDS011;54366;51.980;5.856;2023-04-03T04:02:30;3.13;;;0.98;;
67528;SDS011;54366;51.980;5.856;2023-04-03T04:05:14;2.28;;;1.10;;
67528;SDS011;54366;51.980;5.856;2023-04-03T04:07:47;2.83;;;1.08;;
67528;SDS011;54366;51.980;5.856;2023-04-03T04:10:14;2.17;;;1.02;;
67528;SDS011;54366;51.980;5.856;2023-04-03T04:12:47;2.78;;;1.08;;
67528;SDS011;54366;51.980;5.856;2023-04-03T04:15:25;2.72;;;0.90;;
67528;SDS011;54366;51.980;5.856;2023-04-03T04:17:59;4.17;;;1.10;;
67528;SDS011;54366;51.980;5.856;2023-04-03T04:20:25;2.88;;;1.10;;
67528;SDS011;54366;51.980;5.856;2023-04-03T04:22:58;3.30;;;1.23;;
67528;SDS011;54366;51.980;5.856;2023-04-03T04:25:32;2.95;;;1.10;;
67528;SDS011;54366;51.980;5.856;2023-04-03T04:28:05;2.83;;;1.10;;
67528;SDS011;54366;51.980;5.856;2023-04-03T04:30:38;2.38;;;1.00;;
67528;SDS011;54366;51.980;5.856;2023-04-03T04:33:12;2.47;;;1.05;;
67528;SDS011;54366;51.980;5.856;2023-04-03T04:35:47;2.38;;;1.00;;
67528;SDS011;54366;51.980;5.856;2023-04-03T04:38:21;2.85;;;1.05;;
67528;SDS011;54366;51.980;5.856;2023-04-03T04:40:54;2.55;;;1.10;;
67528;SDS011;54366;51.980;5.856;2023-04-03T04:43:27;2.60;;;1.05;;
67528;SDS011;54366;51.980;5.856;2023-04-03T04:46:05;3.58;;;1.30;;
67528;SDS011;54366;51.980;5.856;2023-04-03T04:48:44;3.25;;;0.95;;
67528;SDS011;54366;51.980;5.856;2023-04-03T04:51:19;3.65;;;1.52;;
67528;SDS011;54366;51.980;5.856;2023-04-03T04:53:46;2.13;;;1.15;;
67528;SDS011;54366;51.980;5.856;2023-04-03T04:56:19;3.53;;;1.30;;
67528;SDS011;54366;51.980;5.856;2023-04-03T04:58:46;3.20;;;1.30;;
67528;SDS011;54366;51.980;5.856;2023-04-03T05:01:20;3.25;;;0.90;;
67528;SDS011;54366;51.980;5.856;2023-04-03T05:04:13;2.90;;;0.95;;
67528;SDS011;54366;51.980;5.856;2023-04-03T05:06:49;2.17;;;1.20;;
67528;SDS011;54366;51.980;5.856;2023-04-03T05:09:26;3.88;;;1.17;;
67528;SDS011;54366;51.980;5.856;2023-04-03T05:12:00;2.53;;;1.00;;
67528;SDS011;54366;51.980;5.856;2023-04-03T05:14:32;3.22;;;1.30;;
67528;SDS011;54366;51.980;5.856;2023-04-03T05:17:07;3.10;;;1.20;;
67528;SDS011;54366;51.980;5.856;2023-04-03T05:19:44;3.63;;;1.42;;
67528;SDS011;54366;51.980;5.856;2023-04-03T05:22:20;4.15;;;1.52;;
67528;SDS011;54366;51.980;5.856;2023-04-03T05:24:46;2.03;;;0.90;;
67528;SDS011;54366;51.980;5.856;2023-04-03T05:27:20;2.58;;;1.10;;
67528;SDS011;54366;51.980;5.856;2023-04-03T05:29:52;3.40;;;1.15;;
67528;SDS011;54366;51.980;5.856;2023-04-03T05:32:26;4.13;;;1.10;;
67528;SDS011;54366;51.980;5.856;2023-04-03T05:35:03;2.67;;;1.13;;
67528;SDS011;54366;51.980;5.856;2023-04-03T05:37:39;3.28;;;1.23;;
67528;SDS011;54366;51.980;5.856;2023-04-03T05:40:14;3.10;;;1.30;;
67528;SDS011;54366;51.980;5.856;2023-04-03T05:42:50;3.05;;;1.08;;
67528;SDS011;54366;51.980;5.856;2023-04-03T05:45:26;2.30;;;1.30;;
67528;SDS011;54366;51.980;5.856;2023-04-03T05:47:59;3.30;;;1.25;;
67528;SDS011;54366;51.980;5.856;2023-04-03T05:50:31;2.10;;;1.10;;
67528;SDS011;54366;51.980;5.856;2023-04-03T05:53:04;4.57;;;1.80;;
67528;SDS011;54366;51.980;5.856;2023-04-03T05:55:37;4.32;;;1.50;;
67528;SDS011;54366;51.980;5.856;2023-04-03T05:58:11;3.07;;;1.30;;
67528;SDS011;54366;51.980;5.856;2023-04-03T06:00:37;4.65;;;1.40;;
67528;SDS011;54366;51.980;5.856;2023-04-03T06:03:10;4.20;;;1.55;;
67528;SDS011;54366;51.980;5.856;2023-04-03T06:05:43;3.13;;;1.25;;
67528;SDS011;54366;51.980;5.856;2023-04-03T06:08:11;6.22;;;1.83;;
67528;SDS011;54366;51.980;5.856;2023-04-03T06:10:44;3.92;;;1.50;;
67528;SDS011;54366;51.980;5.856;2023-04-03T06:13:17;3.58;;;1.23;;
67528;SDS011;54366;51.980;5.856;2023-04-03T06:15:50;4.22;;;1.42;;
67528;SDS011;54366;51.980;5.856;2023-04-03T06:18:23;3.85;;;1.55;;
67528;SDS011;54366;51.980;5.856;2023-04-03T06:20:56;4.65;;;1.50;;
67528;SDS011;54366;51.980;5.856;2023-04-03T06:23:30;3.70;;;1.27;;
67528;SDS011;54366;51.980;5.856;2023-04-03T06:25:58;4.63;;;1.20;;
67528;SDS011;54366;51.980;5.856;2023-04-03T06:28:31;7.20;;;1.52;;
67528;SDS011;54366;51.980;5.856;2023-04-03T06:30:58;3.70;;;1.08;;
67528;SDS011;54366;51.980;5.856;2023-04-03T06:33:30;3.83;;;1.73;;
67528;SDS011;54366;51.980;5.856;2023-04-03T06:36:04;5.10;;;1.52;;
67528;SDS011;54366;51.980;5.856;2023-04-03T06:38:37;2.38;;;1.30;;
67528;SDS011;54366;51.980;5.856;2023-04-03T06:41:04;3.80;;;1.25;;
67528;SDS011;54366;51.980;5.856;2023-04-03T06:43:36;4.72;;;1.38;;
67528;SDS011;54366;51.980;5.856;2023-04-03T06:46:16;3.70;;;1.10;;
67528;SDS011;54366;51.980;5.856;2023-04-03T06:48:49;5.47;;;1.50;;
67528;SDS011;54366;51.980;5.856;2023-04-03T06:51:20;7.70;;;2.17;;
67528;SDS011;54366;51.980;5.856;2023-04-03T06:53:58;5.55;;;1.65;;
67528;SDS011;54366;51.980;5.856;2023-04-03T06:56:25;4.75;;;1.67;;
67528;SDS011;54366;51.980;5.856;2023-04-03T06:58:58;4.07;;;1.60;;
67528;SDS011;54366;51.980;5.856;2023-04-03T07:01:31;3.58;;;1.50;;
67528;SDS011;54366;51.980;5.856;2023-04-03T07:04:04;4.05;;;1.20;;
67528;SDS011;54366;51.980;5.856;2023-04-03T07:06:37;4.63;;;1.23;;
67528;SDS011;54366;51.980;5.856;2023-04-03T07:09:10;5.95;;;1.35;;
67528;SDS011;54366;51.980;5.856;2023-04-03T07:11:43;3.03;;;1.42;;
67528;SDS011;54366;51.980;5.856;2023-04-03T07:14:10;4.88;;;1.27;;
67528;SDS011;54366;51.980;5.856;2023-04-03T07:16:42;4.45;;;1.52;;
67528;SDS011;54366;51.980;5.856;2023-04-03T07:19:15;3.97;;;1.30;;
67528;SDS011;54366;51.980;5.856;2023-04-03T07:21:50;3.50;;;1.20;;
67528;SDS011;54366;51.980;5.856;2023-04-03T07:24:23;5.95;;;1.70;;
67528;SDS011;54366;51.980;5.856;2023-04-03T07:26:50;2.53;;;1.17;;
67528;SDS011;54366;51.980;5.856;2023-04-03T07:29:23;5.03;;;1.35;;
67528;SDS011;54366;51.980;5.856;2023-04-03T07:31:56;4.45;;;1.40;;
67528;SDS011;54366;51.980;5.856;2023-04-03T07:34:29;4.72;;;1.50;;
67528;SDS011;54366;51.980;5.856;2023-04-03T07:37:02;3.72;;;1.30;;
67528;SDS011;54366;51.980;5.856;2023-04-03T07:39:29;2.70;;;1.20;;
67528;SDS011;54366;51.980;5.856;2023-04-03T07:42:01;2.75;;;1.20;;
67528;SDS011;54366;51.980;5.856;2023-04-03T07:44:34;4.07;;;1.30;;
67528;SDS011;54366;51.980;5.856;2023-04-03T07:47:07;3.60;;;1.27;;
67528;SDS011;54366;51.980;5.856;2023-04-03T07:49:40;2.83;;;1.35;;
67528;SDS011;54366;51.980;5.856;2023-04-03T07:52:13;3.85;;;1.40;;
67528;SDS011;54366;51.980;5.856;2023-04-03T07:54:47;2.75;;;1.20;;
67528;SDS011;54366;51.980;5.856;2023-04-03T07:57:20;3.45;;;1.17;;
67528;SDS011;54366;51.980;5.856;2023-04-03T07:59:53;4.28;;;1.48;;
67528;SDS011;54366;51.980;5.856;2023-04-03T08:02:26;4.00;;;1.40;;
67528;SDS011;54366;51.980;5.856;2023-04-03T08:05:06;4.47;;;1.10;;
67528;SDS011;54366;51.980;5.856;2023-04-03T08:07:46;4.85;;;1.30;;
67528;SDS011;54366;51.980;5.856;2023-04-03T08:10:14;4.72;;;1.20;;
67528;SDS011;54366;51.980;5.856;2023-04-03T08:12:47;1.70;;;1.00;;
67528;SDS011;54366;51.980;5.856;2023-04-03T08:15:20;3.28;;;1.10;;
67528;SDS011;54366;51.980;5.856;2023-04-03T08:17:53;2.95;;;1.17;;
67528;SDS011;54366;51.980;5.856;2023-04-03T08:20:27;3.80;;;1.08;;
67528;SDS011;54366;51.980;5.856;2023-04-03T08:22:53;2.65;;;0.93;;
67528;SDS011;54366;51.980;5.856;2023-04-03T08:25:26;1.70;;;0.73;;
67528;SDS011;54366;51.980;5.856;2023-04-03T08:27:55;2.83;;;0.93;;
67528;SDS011;54366;51.980;5.856;2023-04-03T08:30:27;2.70;;;0.80;;
67528;SDS011;54366;51.980;5.856;2023-04-03T08:33:01;2.40;;;1.05;;
67528;SDS011;54366;51.980;5.856;2023-04-03T08:35:38;2.85;;;0.88;;
67528;SDS011;54366;51.980;5.856;2023-04-03T08:38:14;2.67;;;0.50;;
67528;SDS011;54366;51.980;5.856;2023-04-03T08:40:47;2.35;;;0.60;;
67528;SDS011;54366;51.980;5.856;2023-04-03T08:43:36;1.95;;;0.70;;
67528;SDS011;54366;51.980;5.856;2023-04-03T08:46:13;1.23;;;0.50;;
67528;SDS011;54366;51.980;5.856;2023-04-03T08:48:48;3.17;;;1.10;;
67528;SDS011;54366;51.980;5.856;2023-04-03T08:51:22;1.77;;;0.85;;
67528;SDS011;54366;51.980;5.856;2023-04-03T08:53:58;1.42;;;0.55;;
67528;SDS011;54366;51.980;5.856;2023-04-03T08:56:35;1.77;;;0.50;;
67528;SDS011;54366;51.980;5.856;2023-04-03T08:59:12;1.48;;;0.57;;
67528;SDS011;54366;51.980;5.856;2023-04-03T09:01:51;1.20;;;0.60;;
67528;SDS011;54366;51.980;5.856;2023-04-03T09:04:32;0.82;;;0.40;;
67528;SDS011;54366;51.980;5.856;2023-04-03T09:07:10;2.58;;;0.52;;
67528;SDS011;54366;51.980;5.856;2023-04-03T09:09:53;1.33;;;0.40;;
67528;SDS011;54366;51.980;5.856;2023-04-03T09:12:21;0.30;;;0.30;;
67528;SDS011;54366;51.980;5.856;2023-04-03T09:15:13;1.73;;;0.40;;
67528;SDS011;54366;51.980;5.856;2023-04-03T09:21:14;1.30;;;0.28;;
67528;SDS011;54366;51.980;5.856;2023-04-03T09:23:54;1.15;;;0.40;;
67528;SDS011;54366;51.980;5.856;2023-04-03T09:26:32;0.90;;;0.30;;
67528;SDS011;54366;51.980;5.856;2023-04-03T09:29:26;0.57;;;0.30;;
67528;SDS011;54366;51.980;5.856;2023-04-03T09:32:00;0.22;;;0.20;;
67528;SDS011;54366;51.980;5.856;2023-04-03T09:34:42;1.05;;;0.30;;
67528;SDS011;54366;51.980;5.856;2023-04-03T09:37:39;1.15;;;0.30;;
67528;SDS011;54366;51.980;5.856;2023-04-03T09:40:31;0.45;;;0.20;;
67528;SDS011;54366;51.980;5.856;2023-04-03T09:43:28;0.60;;;0.20;;
67528;SDS011;54366;51.980;5.856;2023-04-03T09:46:46;1.70;;;0.20;;
67528;SDS011;54366;51.980;5.856;2023-04-03T09:49:04;0.73;;;0.30;;
67528;SDS011;54366;51.980;5.856;2023-04-03T09:51:38;0.52;;;0.20;;
67528;SDS011;54366;51.980;5.856;2023-04-03T09:54:26;1.73;;;0.20;;
67528;SDS011;54366;51.980;5.856;2023-04-03T09:57:13;0.80;;;0.20;;
67528;SDS011;54366;51.980;5.856;2023-04-03T09:59:58;1.73;;;0.20;;
67528;SDS011;54366;51.980;5.856;2023-04-03T10:02:40;1.30;;;0.20;;
67528;SDS011;54366;51.980;5.856;2023-04-03T10:05:29;1.00;;;0.30;;
67528;SDS011;54366;51.980;5.856;2023-04-03T10:08:30;1.30;;;0.30;;
67528;SDS011;54366;51.980;5.856;2023-04-03T10:11:06;1.50;;;0.30;;
67528;SDS011;54366;51.980;5.856;2023-04-03T10:16:52;1.05;;;0.30;;
67528;SDS011;54366;51.980;5.856;2023-04-03T10:19:55;1.50;;;0.45;;
67528;SDS011;54366;51.980;5.856;2023-04-03T10:23:14;1.17;;;0.40;;
67528;SDS011;54366;51.980;5.856;2023-04-03T10:29:59;1.15;;;0.43;;
67528;SDS011;54366;51.980;5.856;2023-04-03T10:32:42;1.00;;;0.35;;
67528;SDS011;54366;51.980;5.856;2023-04-03T10:42:14;2.53;;;0.40;;
67528;SDS011;54366;51.980;5.856;2023-04-03T10:47:53;0.95;;;0.30;;
67528;SDS011;54366;51.980;5.856;2023-04-03T10:50:57;1.83;;;0.45;;
67528;SDS011;54366;51.980;5.856;2023-04-03T10:53:58;2.38;;;0.43;;
67528;SDS011;54366;51.980;5.856;2023-04-03T10:56:37;3.15;;;0.90;;
67528;SDS011;54366;51.980;5.856;2023-04-03T11:00:23;1.80;;;0.68;;
67528;SDS011;54366;51.980;5.856;2023-04-03T11:02:30;1.92;;;0.80;;
67528;SDS011;54366;51.980;5.856;2023-04-03T11:05:31;4.60;;;0.50;;
67528;SDS011;54366;51.980;5.856;2023-04-03T11:11:13;1.33;;;0.50;;
67528;SDS011;54366;51.980;5.856;2023-04-03T11:13:50;1.77;;;0.63;;
67528;SDS011;54366;51.980;5.856;2023-04-03T11:16:30;1.17;;;0.50;;
67528;SDS011;54366;51.980;5.856;2023-04-03T11:19:17;1.17;;;0.50;;
67528;SDS011;54366;51.980;5.856;2023-04-03T11:24:37;1.55;;;0.60;;
67528;SDS011;54366;51.980;5.856;2023-04-03T11:27:15;1.13;;;0.40;;
67528;SDS011;54366;51.980;5.856;2023-04-03T11:29:54;1.20;;;0.55;;
67528;SDS011;54366;51.980;5.856;2023-04-03T11:35:37;1.30;;;0.60;;
67528;SDS011;54366;51.980;5.856;2023-04-03T11:38:24;2.45;;;0.60;;
67528;SDS011;54366;51.980;5.856;2023-04-03T11:41:04;1.70;;;0.40;;
67528;SDS011;54366;51.980;5.856;2023-04-03T11:43:40;1.75;;;0.47;;
67528;SDS011;54366;51.980;5.856;2023-04-03T11:46:18;1.25;;;0.35;;
67528;SDS011;54366;51.980;5.856;2023-04-03T11:48:46;1.35;;;0.30;;
67528;SDS011;54366;51.980;5.856;2023-04-03T11:54:36;0.80;;;0.30;;
67528;SDS011;54366;51.980;5.856;2023-04-03T12:03:56;0.52;;;0.30;;
67528;SDS011;54366;51.980;5.856;2023-04-03T12:12:39;1.63;;;0.50;;
67528;SDS011;54366;51.980;5.856;2023-04-03T12:15:19;1.30;;;0.40;;
67528;SDS011;54366;51.980;5.856;2023-04-03T12:17:58;1.67;;;0.50;;
67528;SDS011;54366;51.980;5.856;2023-04-03T12:23:34;1.17;;;0.50;;
67528;SDS011;54366;51.980;5.856;2023-04-03T12:26:20;1.27;;;0.40;;
67528;SDS011;54366;51.980;5.856;2023-04-03T12:29:20;2.45;;;1.48;;
67528;SDS011;54366;51.980;5.856;2023-04-03T12:36:08;1.58;;;0.60;;
67528;SDS011;54366;51.980;5.856;2023-04-03T12:38:54;1.05;;;0.50;;
67528;SDS011;54366;51.980;5.856;2023-04-03T12:41:50;1.95;;;0.63;;
67528;SDS011;54366;51.980;5.856;2023-04-03T12:47:34;2.55;;;0.60;;
67528;SDS011;54366;51.980;5.856;2023-04-03T12:50:22;1.30;;;0.50;;
67528;SDS011;54366;51.980;5.856;2023-04-03T12:53:21;1.33;;;0.45;;
67528;SDS011;54366;51.980;5.856;2023-04-03T12:55:57;1.17;;;0.60;;
67528;SDS011;54366;51.980;5.856;2023-04-03T12:58:50;1.05;;;0.50;;
67528;SDS011;54366;51.980;5.856;2023-04-03T13:01:26;1.80;;;0.73;;
67528;SDS011;54366;51.980;5.856;2023-04-03T13:04:05;1.65;;;0.65;;
67528;SDS011;54366;51.980;5.856;2023-04-03T13:06:44;2.13;;;0.52;;
67528;SDS011;54366;51.980;5.856;2023-04-03T13:09:22;1.05;;;0.50;;
67528;SDS011;54366;51.980;5.856;2023-04-03T13:12:15;0.98;;;0.45;;
67528;SDS011;54366;51.980;5.856;2023-04-03T13:14:51;1.73;;;0.40;;
67528;SDS011;54366;51.980;5.856;2023-04-03T13:17:27;1.02;;;0.50;;
67528;SDS011;54366;51.980;5.856;2023-04-03T13:19:54;1.27;;;0.60;;
67528;SDS011;54366;51.980;5.856;2023-04-03T13:22:38;2.55;;;0.70;;
67528;SDS011;54366;51.980;5.856;2023-04-03T13:25:19;1.20;;;0.50;;
67528;SDS011;54366;51.980;5.856;2023-04-03T13:27:46;1.67;;;0.65;;
67528;SDS011;54366;51.980;5.856;2023-04-03T13:33:20;4.03;;;0.77;;
67528;SDS011;54366;51.980;5.856;2023-04-03T13:35:56;2.45;;;0.80;;
67528;SDS011;54366;51.980;5.856;2023-04-03T13:38:35;1.52;;;0.43;;
67528;SDS011;54366;51.980;5.856;2023-04-03T13:41:30;2.65;;;0.50;;
67528;SDS011;54366;51.980;5.856;2023-04-03T13:46:58;1.70;;;0.52;;
67528;SDS011;54366;51.980;5.856;2023-04-03T13:50:01;2.13;;;0.68;;
67528;SDS011;54366;51.980;5.856;2023-04-03T13:52:54;1.30;;;0.60;;
67528;SDS011;54366;51.980;5.856;2023-04-03T13:55:34;1.33;;;0.52;;
67528;SDS011;54366;51.980;5.856;2023-04-03T13:58:16;1.48;;;0.73;;
67528;SDS011;54366;51.980;5.856;2023-04-03T14:00:56;1.50;;;0.50;;
67528;SDS011;54366;51.980;5.856;2023-04-03T14:03:47;1.25;;;0.60;;
67528;SDS011;54366;51.980;5.856;2023-04-03T14:06:36;2.47;;;0.70;;
67528;SDS011;54366;51.980;5.856;2023-04-03T14:09:09;1.52;;;0.70;;
67528;SDS011;54366;51.980;5.856;2023-04-03T14:11:43;3.20;;;0.80;;
67528;SDS011;54366;51.980;5.856;2023-04-03T14:14:17;2.10;;;0.63;;
67528;SDS011;54366;51.980;5.856;2023-04-03T14:16:56;2.97;;;0.70;;
67528;SDS011;54366;51.980;5.856;2023-04-03T14:19:32;2.10;;;0.60;;
67528;SDS011;54366;51.980;5.856;2023-04-03T14:22:11;2.22;;;0.90;;
67528;SDS011;54366;51.980;5.856;2023-04-03T14:24:54;3.70;;;0.90;;
67528;SDS011;54366;51.980;5.856;2023-04-03T14:27:26;1.40;;;0.80;;
67528;SDS011;54366;51.980;5.856;2023-04-03T14:30:08;2.47;;;0.70;;
67528;SDS011;54366;51.980;5.856;2023-04-03T14:32:46;3.00;;;1.00;;
67528;SDS011;54366;51.980;5.856;2023-04-03T14:35:13;1.27;;;0.80;;
67528;SDS011;54366;51.980;5.856;2023-04-03T14:37:46;1.48;;;0.73;;
67528;SDS011;54366;51.980;5.856;2023-04-03T14:40:15;3.03;;;0.95;;
67528;SDS011;54366;51.980;5.856;2023-04-03T14:42:51;2.45;;;1.02;;
67528;SDS011;54366;51.980;5.856;2023-04-03T14:45:26;1.73;;;0.60;;
67528;SDS011;54366;51.980;5.856;2023-04-03T14:47:54;1.42;;;0.82;;
67528;SDS011;54366;51.980;5.856;2023-04-03T14:50:27;2.92;;;0.90;;
67528;SDS011;54366;51.980;5.856;2023-04-03T14:52:55;2.38;;;0.80;;
67528;SDS011;54366;51.980;5.856;2023-04-03T14:55:29;2.08;;;0.90;;
67528;SDS011;54366;51.980;5.856;2023-04-03T14:58:03;2.78;;;1.10;;
67528;SDS011;54366;51.980;5.856;2023-04-03T15:00:30;2.97;;;1.20;;
67528;SDS011;54366;51.980;5.856;2023-04-03T15:03:02;2.63;;;0.90;;
67528;SDS011;54366;51.980;5.856;2023-04-03T15:05:35;3.65;;;1.30;;
67528;SDS011;54366;51.980;5.856;2023-04-03T15:08:25;1.95;;;0.82;;
67528;SDS011;54366;51.980;5.856;2023-04-03T15:11:01;2.55;;;0.90;;
67528;SDS011;54366;51.980;5.856;2023-04-03T15:13:34;1.75;;;0.60;;
67528;SDS011;54366;51.980;5.856;2023-04-03T15:16:12;2.75;;;1.00;;
67528;SDS011;54366;51.980;5.856;2023-04-03T15:18:50;2.70;;;0.82;;
67528;SDS011;54366;51.980;5.856;2023-04-03T15:21:23;4.38;;;1.00;;
67528;SDS011;54366;51.980;5.856;2023-04-03T15:23:56;2.10;;;1.00;;
67528;SDS011;54366;51.980;5.856;2023-04-03T15:26:29;2.65;;;0.88;;
67528;SDS011;54366;51.980;5.856;2023-04-03T15:29:03;3.13;;;0.98;;
67528;SDS011;54366;51.980;5.856;2023-04-03T15:31:30;3.97;;;0.90;;
67528;SDS011;54366;51.980;5.856;2023-04-03T15:34:04;1.83;;;1.13;;
67528;SDS011;54366;51.980;5.856;2023-04-03T15:36:37;1.65;;;0.88;;
67528;SDS011;54366;51.980;5.856;2023-04-03T15:39:10;3.35;;;1.20;;
67528;SDS011;54366;51.980;5.856;2023-04-03T15:41:44;2.25;;;0.80;;
67528;SDS011;54366;51.980;5.856;2023-04-03T15:44:11;2.97;;;1.20;;
67528;SDS011;54366;51.980;5.856;2023-04-03T15:46:45;3.10;;;1.00;;
67528;SDS011;54366;51.980;5.856;2023-04-03T15:49:12;1.45;;;0.60;;
67528;SDS011;54366;51.980;5.856;2023-04-03T15:51:45;2.53;;;1.25;;
67528;SDS011;54366;51.980;5.856;2023-04-03T15:54:12;2.40;;;1.10;;
67528;SDS011;54366;51.980;5.856;2023-04-03T15:56:44;1.52;;;0.80;;
67528;SDS011;54366;51.980;5.856;2023-04-03T15:59:17;3.90;;;1.10;;
67528;SDS011;54366;51.980;5.856;2023-04-03T16:01:44;2.97;;;1.10;;
67528;SDS011;54366;51.980;5.856;2023-04-03T16:04:18;3.53;;;1.27;;
67528;SDS011;54366;51.980;5.856;2023-04-03T16:07:00;2.00;;;0.90;;
67528;SDS011;54366;51.980;5.856;2023-04-03T16:09:35;6.70;;;1.30;;
67528;SDS011;54366;51.980;5.856;2023-04-03T16:12:01;2.40;;;1.17;;
67528;SDS011;54366;51.980;5.856;2023-04-03T16:14:34;3.13;;;1.13;;
67528;SDS011;54366;51.980;5.856;2023-04-03T16:17:01;3.40;;;0.90;;
67528;SDS011;54366;51.980;5.856;2023-04-03T16:19:33;1.48;;;0.73;;
67528;SDS011;54366;51.980;5.856;2023-04-03T16:22:06;2.80;;;0.90;;
67528;SDS011;54366;51.980;5.856;2023-04-03T16:24:39;4.55;;;1.13;;
67528;SDS011;54366;51.980;5.856;2023-04-03T16:27:06;1.88;;;0.80;;
67528;SDS011;54366;51.980;5.856;2023-04-03T16:29:38;2.17;;;0.90;;
67528;SDS011;54366;51.980;5.856;2023-04-03T16:32:11;2.33;;;0.98;;
67528;SDS011;54366;51.980;5.856;2023-04-03T16:34:45;2.40;;;0.98;;
67528;SDS011;54366;51.980;5.856;2023-04-03T16:37:12;2.78;;;1.05;;
67528;SDS011;54366;51.980;5.856;2023-04-03T16:39:44;2.83;;;1.13;;
67528;SDS011;54366;51.980;5.856;2023-04-03T16:42:31;2.25;;;0.80;;
67528;SDS011;54366;51.980;5.856;2023-04-03T16:45:05;2.42;;;0.82;;
67528;SDS011;54366;51.980;5.856;2023-04-03T16:47:32;2.90;;;1.20;;
67528;SDS011;54366;51.980;5.856;2023-04-03T16:50:06;1.70;;;0.93;;